• Join FlightAware (Why Join?)
  • Login
  • US Flag 
08:53AM EDT


 

Airport Tracker/Info


-or-


 

Live Flight TrackerFlight Track Log ✈ UAL1049 ✈ 29-Sep-2013 ✈ KEWR - KBOS

Flight Track Log - Related Links

Times and Time Zones

All times are in EDT time to prevent confusion due to time zone crossing. See the UAL1049 flight status page for this flight to view local times or setup timezone preferences in your user account.

Time Position Orientation Groundspeed Altitude Reporting Facility
EDT Latitude Longitude Course Direction KTS MPH feet Rate Location/Type
08:47PM 40.6636 -74.1789 43° Northeast 171 197 1,300  Level Boston Center
08:48PM 40.6439 -74.2339 245° Southwest 208 239 4,500 2,280 Climbing Boston Center
08:49PM 40.7156 -74.2103 14° North 266 306 6,000 1,560 Climbing Boston Center
08:50PM 40.8623 -73.8617 47° Northeast  Level Estimated
08:50PM 40.7842 -74.1631 28° Northeast 277 319 7,800  Level Boston Center
08:51PM 40.9187 -73.7591 51° Northeast  Level Estimated
08:52PM 40.9750 -73.6562 37° Northeast  Level Estimated
08:52PM 40.8386 -74.0833 48° Northeast 297 342 10,000  Level Boston Center
08:53PM 41.0313 -73.5532 43° Northeast  Level Estimated
08:53PM 40.8933 -73.9914 52° Northeast 317 365 11,100  Level Boston Center
08:54PM 40.9489 -73.8942 53° Northeast 330 380 14,800 2,940 Climbing Boston Center
08:55PM 41.0172 -73.7758 53° Northeast 353 406 17,000 1,980 Climbing Boston Center
08:56PM 41.0617 -73.6439 66° East 392 451 18,900 960 Climbing Boston Center
08:57PM 41.1022 -73.5083 68° East 398 458 19,000 900 Climbing Boston Center
08:58PM 41.1381 -73.3883 68° East 401 461 20,800 960 Climbing Boston Center
08:59PM 41.1833 -73.2406 68° East 409 471 21,000 60 Climbing Boston Center
09:00PM 41.2236 -73.0983 69° East 413 475 21,000  Level Boston Center
09:01PM 41.2664 -72.9553 68° East 418 481 21,000 -60 Level Boston Center
09:02PM 41.3078 -72.8150 69° East 416 479 20,900  Descending Boston Center
09:03PM 41.3567 -72.6444 69° East 411 473 21,000  Climbing Boston Center
09:04PM 41.3983 -72.5008 69° East 413 475 21,000 -300 Level Boston Center
09:05PM 41.4389 -72.3569 69° East 414 476 20,400 -780 Descending Boston Center
09:06PM 41.4786 -72.2114 70° East 417 480 19,500 -1,020 Descending Boston Center
09:07PM 41.5336 -72.0644 63° Northeast 418 481 18,400 -900 Descending Boston Center
09:08PM 41.5789 -71.9272 66° East 407 468 17,700 -1,320 Descending Boston Center
09:09PM 41.6197 -71.7889 68° East 401 461 15,700 -2,220 Descending Boston Center
09:10PM 41.6569 -71.6586 69° East 379 436 13,300 -2,100 Descending Boston Center
09:11PM 41.6956 -71.5256 69° East 366 421 11,500 -1,140 Descending Boston Center
09:12PM 41.7322 -71.4219 65° Northeast 313 360 11,000 -300 Descending Boston Center
09:13PM 41.7936 -71.3481 42° Northeast 298 343 11,000  Level Boston Center
09:14PM 41.8522 -71.2761 42° Northeast 289 333 11,000 -900 Level Boston Center
09:15PM 41.9239 -71.2194 30° Northeast 285 328 9,300 -1,800 Descending Boston Center
09:16PM 41.9986 -71.1822 20° North 287 330 7,400 -1,740 Descending Boston Center
09:17PM 42.0731 -71.1478 19° North 284 327 5,800 -1,500 Descending Boston Center
09:17PM 42.1167 -71.1167 28° Northeast 257 296 5,000 -1,380 Descending KA90
09:18PM 42.1833 -71.1000 10° North 221 254 3,700 -1,200 Descending KA90
09:19PM 42.2333 -71.0667 26° Northeast 176 203 2,700 -900 Descending KA90
09:20PM 42.2667 -71.0500 20° North 148 170 1,900 -840 Descending KA90
09:21PM 42.3000 -71.0333 20° North 140 161 1,100 -840 Descending KA90
09:22PM 42.3333 -71.0167 20° North 140 161 300 -840 Descending KA90